Time;durP1;ratioP1;P1;durP2;ratioP2;P2;SDS_P1;SDS_P2;PMS_P1;PMS_P2;Temp;Humidity;BMP_temperature;BMP_pressure;BME280_temperature;BME280_humidity;BME280_pressure;Samples;Min_cycle;Max_cycle;Signal;HPM_P1;HPM_P2
2023/03/09 00:00:21;;;;;;;3.17;2.13;;;;;;;9.93;100.00;97931.84;5039824;28;20206;-75
2023/03/09 00:02:47;;;;;;;4.87;1.73;;;;;;;9.85;100.00;97924.44;5042739;28;20268;-74
2023/03/09 00:05:12;;;;;;;2.13;1.43;;;;;;;9.80;100.00;97922.06;5042275;28;20200;-73
2023/03/09 00:07:38;;;;;;;3.80;1.77;;;;;;;9.76;100.00;97934.25;5042904;28;20187;-73
2023/03/09 00:10:04;;;;;;;2.17;1.30;;;;;;;9.73;100.00;97929.25;5040138;28;21215;-73
2023/03/09 00:12:29;;;;;;;3.23;1.80;;;;;;;9.73;100.00;97933.56;5045977;28;20695;-73
2023/03/09 00:14:55;;;;;;;1.87;1.30;;;;;;;9.68;100.00;97928.59;5043709;28;20741;-73
2023/03/09 00:17:21;;;;;;;2.07;1.30;;;;;;;9.67;100.00;97936.41;5047040;28;20193;-73
2023/03/09 00:19:46;;;;;;;1.97;1.07;;;;;;;9.65;100.00;97940.81;5043580;28;20229;-73
2023/03/09 00:22:11;;;;;;;1.50;1.40;;;;;;;9.61;100.00;97938.34;5040169;28;20214;-72
2023/03/09 00:24:45;;;;;;;1.43;1.10;;;;;;;9.61;100.00;97927.16;5040522;28;20184;-73
2023/03/09 00:27:11;;;;;;;2.30;1.17;;;;;;;9.61;100.00;97940.94;5044322;28;20192;-73
2023/03/09 00:29:36;;;;;;;3.47;1.73;;;;;;;9.63;100.00;97940.84;5042015;28;20578;-73
2023/03/09 00:32:01;;;;;;;2.87;1.70;;;;;;;9.65;100.00;97940.81;5038759;28;20680;-73
2023/03/09 00:34:27;;;;;;;3.30;1.73;;;;;;;9.68;100.00;97941.50;5038415;28;20212;-73
2023/03/09 00:36:52;;;;;;;2.43;1.60;;;;;;;9.71;100.00;97940.53;5040209;28;20195;-73
2023/03/09 00:39:17;;;;;;;3.53;1.90;;;;;;;9.73;100.00;97934.41;5042027;28;20229;-73
2023/03/09 00:41:44;;;;;;;4.93;2.30;;;;;;;9.79;100.00;97927.28;5040690;28;20188;-73
2023/03/09 00:44:11;;;;;;;3.03;1.90;;;;;;;9.83;100.00;97934.81;5040448;28;20187;-73
2023/03/09 00:46:36;;;;;;;2.13;1.50;;;;;;;9.85;100.00;97932.19;5045430;28;20195;-72
2023/03/09 00:49:05;;;;;;;2.20;1.30;;;;;;;9.82;100.00;97943.50;5043994;28;20212;-73
2023/03/09 00:51:32;;;;;;;2.90;1.80;;;;;;;9.83;100.00;97952.91;5042300;28;20685;-72
2023/03/09 00:53:57;;;;;;;2.33;1.40;;;;;;;9.83;100.00;97945.16;5044309;28;20218;-72
2023/03/09 00:56:29;;;;;;;1.77;1.07;;;;;;;9.84;100.00;97949.41;5043007;28;20184;-73
2023/03/09 00:58:55;;;;;;;2.17;1.10;;;;;;;9.86;100.00;97962.28;5042950;28;20236;-73
2023/03/09 01:01:20;;;;;;;2.20;1.17;;;;;;;9.84;100.00;97948.59;5041730;28;20626;-73
2023/03/09 01:03:46;;;;;;;1.97;1.10;;;;;;;9.80;100.00;97953.06;5055876;28;20280;-73
2023/03/09 01:06:12;;;;;;;1.47;0.83;;;;;;;9.79;100.00;97958.28;5042819;28;20527;-73
2023/03/09 01:08:38;;;;;;;2.83;1.07;;;;;;;9.76;100.00;97962.66;5037170;28;20202;-74
2023/03/09 01:11:06;;;;;;;2.03;0.87;;;;;;;9.79;100.00;97971.19;5039510;28;20283;-73
2023/03/09 01:13:31;;;;;;;1.57;1.00;;;;;;;9.77;100.00;97959.19;5057848;28;20792;-73
2023/03/09 01:15:56;;;;;;;2.50;0.63;;;;;;;9.77;100.00;97971.28;5045328;28;20277;-73
2023/03/09 01:18:22;;;;;;;1.67;0.70;;;;;;;9.76;100.00;97983.31;5041396;28;20548;-72
2023/03/09 01:20:47;;;;;;;3.33;1.00;;;;;;;9.72;100.00;97976.63;5040279;28;20189;-73
2023/03/09 01:23:12;;;;;;;0.90;0.70;;;;;;;9.71;100.00;97974.97;5038443;28;20195;-73
2023/03/09 01:25:38;;;;;;;1.57;0.90;;;;;;;9.71;100.00;97981.84;5047248;28;20191;-73
2023/03/09 01:28:03;;;;;;;2.00;0.80;;;;;;;9.71;100.00;97972.38;5045297;28;20237;-73
2023/03/09 01:30:28;;;;;;;1.50;0.73;;;;;;;9.71;100.00;97971.53;5047773;28;20256;-74
2023/03/09 01:32:54;;;;;;;1.07;0.70;;;;;;;9.72;100.00;97968.88;5043753;28;20208;-73
2023/03/09 01:35:20;;;;;;;3.23;0.70;;;;;;;9.73;100.00;97956.81;5046869;28;20209;-73
2023/03/09 01:37:45;;;;;;;1.07;0.50;;;;;;;9.72;100.00;97953.41;5044192;28;20198;-73
2023/03/09 01:40:18;;;;;;;0.87;0.70;;;;;;;9.72;100.00;97952.53;5047105;28;20207;-73
2023/03/09 01:42:52;;;;;;;1.07;0.60;;;;;;;9.71;100.00;97950.84;5039387;28;20186;-73
2023/03/09 01:45:17;;;;;;;1.00;0.53;;;;;;;9.69;100.00;97953.53;5043583;28;20190;-73
2023/03/09 01:47:43;;;;;;;1.33;0.70;;;;;;;9.70;100.00;97957.78;5040729;28;20204;-73
2023/03/09 01:50:08;;;;;;;0.90;0.60;;;;;;;9.69;100.00;97948.34;5037807;28;20501;-73
2023/03/09 01:52:35;;;;;;;0.90;0.53;;;;;;;9.71;100.00;97949.13;5034356;28;20179;-72
2023/03/09 01:55:03;;;;;;;0.50;0.40;;;;;;;9.71;100.00;97953.44;5042541;28;20329;-73
2023/03/09 01:57:40;;;;;;;2.73;0.80;;;;;;;9.72;100.00;97947.38;5045081;28;20201;-73
2023/03/09 02:00:11;;;;;;;0.53;0.50;;;;;;;9.72;100.00;97953.41;5044909;28;20221;-73
2023/03/09 02:02:40;;;;;;;1.00;0.40;;;;;;;9.74;100.00;97967.09;5059879;28;20996;-73
2023/03/09 02:05:10;;;;;;;1.53;0.40;;;;;;;9.75;100.00;97958.44;5058073;28;20219;-73
2023/03/09 02:07:39;;;;;;;1.67;0.47;;;;;;;9.75;100.00;97961.00;5039468;28;20201;-73
2023/03/09 02:10:13;;;;;;;1.33;0.57;;;;;;;9.75;100.00;97978.25;5048585;28;20211;-72
2023/03/09 02:12:40;;;;;;;0.33;0.33;;;;;;;9.73;100.00;97970.56;5069240;28;20194;-74
2023/03/09 02:15:07;;;;;;;2.23;0.70;;;;;;;9.68;100.00;97972.50;5065001;28;20237;-73
2023/03/09 02:17:33;;;;;;;1.33;0.40;;;;;;;9.63;100.00;97974.44;5046517;28;20209;-72
2023/03/09 02:20:04;;;;;;;0.93;0.40;;;;;;;9.61;100.00;97977.09;5064818;28;20245;-73
2023/03/09 02:22:34;;;;;;;0.50;0.40;;;;;;;9.57;100.00;98001.34;5047123;28;20182;-73
2023/03/09 02:25:27;;;;;;;1.50;0.40;;;;;;;9.53;100.00;98004.94;5043986;28;20192;-73
2023/03/09 02:27:53;;;;;;;0.63;0.50;;;;;;;9.50;100.00;98005.09;5042331;28;20195;-73
2023/03/09 02:30:18;;;;;;;1.43;0.40;;;;;;;9.46;100.00;98035.34;5047223;28;20225;-73
2023/03/09 02:32:44;;;;;;;0.93;0.40;;;;;;;9.42;100.00;98058.78;5039127;28;20203;-73
2023/03/09 02:35:10;;;;;;;0.93;0.40;;;;;;;9.33;100.00;98092.72;5044049;28;20184;-73
2023/03/09 02:37:50;;;;;;;1.63;0.60;;;;;;;9.28;100.00;98141.94;5047329;28;20191;-72
2023/03/09 02:40:21;;;;;;;0.50;0.50;;;;;;;9.23;100.00;98146.44;5045767;28;20673;-73
2023/03/09 02:42:48;;;;;;;1.37;0.60;;;;;;;9.17;100.00;98147.50;5037701;28;20249;-73
2023/03/09 02:45:17;;;;;;;0.60;0.30;;;;;;;9.12;100.00;98165.75;5046592;28;20259;-74
2023/03/09 02:47:42;;;;;;;3.37;0.63;;;;;;;9.08;100.00;98161.59;5043091;28;20291;-73
2023/03/09 02:50:09;;;;;;;0.80;0.50;;;;;;;9.06;100.00;98172.88;5056716;28;20237;-73
2023/03/09 02:52:35;;;;;;;1.63;0.50;;;;;;;9.03;100.00;98175.56;5040568;28;20219;-73
2023/03/09 02:55:01;;;;;;;0.80;0.53;;;;;;;9.01;100.00;98185.91;5042838;28;20186;-73
2023/03/09 02:57:26;;;;;;;1.70;0.83;;;;;;;9.00;100.00;98184.22;5043456;28;20202;-72
2023/03/09 02:59:51;;;;;;;1.27;0.80;;;;;;;8.97;100.00;98200.66;5044971;28;20203;-73
2023/03/09 03:02:17;;;;;;;1.63;0.70;;;;;;;8.93;100.00;98191.34;5042691;28;20179;-74
2023/03/09 03:04:42;;;;;;;1.30;0.60;;;;;;;8.92;100.00;98187.13;5042300;28;20206;-73
2023/03/09 03:07:08;;;;;;;2.07;0.50;;;;;;;8.92;100.00;98188.84;5040985;28;20187;-73
2023/03/09 03:09:33;;;;;;;0.77;0.60;;;;;;;8.88;100.00;98202.75;5043642;28;20663;-73
2023/03/09 03:11:58;;;;;;;1.43;0.60;;;;;;;8.85;100.00;98217.41;5037822;28;20646;-74
2023/03/09 03:14:24;;;;;;;1.30;0.57;;;;;;;8.82;100.00;98217.56;5037716;28;20742;-73
2023/03/09 03:16:49;;;;;;;2.30;0.67;;;;;;;8.88;100.00;98234.56;5043855;28;20187;-72
2023/03/09 03:19:14;;;;;;;2.10;0.60;;;;;;;8.84;100.00;98241.56;5057697;28;20211;-72
2023/03/09 03:21:40;;;;;;;0.80;0.50;;;;;;;8.82;100.00;98232.16;5042212;28;20682;-73
2023/03/09 03:24:06;;;;;;;1.13;0.67;;;;;;;8.81;100.00;98245.97;5042826;28;20203;-73
2023/03/09 03:26:31;;;;;;;1.70;0.53;;;;;;;8.81;100.00;98256.28;5039788;28;20218;-73
2023/03/09 03:28:56;;;;;;;1.70;0.70;;;;;;;8.81;100.00;98264.00;5041301;28;20238;-73
2023/03/09 03:31:22;;;;;;;0.90;0.60;;;;;;;8.83;100.00;98264.81;5045871;28;20202;-73
2023/03/09 03:33:47;;;;;;;1.30;0.57;;;;;;;8.80;100.00;98273.50;5043204;28;20199;-73
2023/03/09 03:36:13;;;;;;;3.17;0.80;;;;;;;8.82;100.00;98286.34;5042124;28;20182;-73
2023/03/09 03:38:38;;;;;;;3.23;0.90;;;;;;;8.84;100.00;98287.13;5040937;28;20234;-73
2023/03/09 03:41:04;;;;;;;1.07;0.50;;;;;;;8.82;100.00;98307.81;5043383;28;20663;-73
2023/03/09 03:43:29;;;;;;;1.47;0.83;;;;;;;8.79;100.00;98310.50;5035165;28;20179;-73
2023/03/09 03:45:54;;;;;;;2.93;0.90;;;;;;;8.79;100.00;98325.13;5046367;28;20780;-73
2023/03/09 03:48:19;;;;;;;2.43;0.80;;;;;;;8.77;100.00;98335.50;5048919;28;20179;-73
2023/03/09 03:50:45;;;;;;;1.23;0.73;;;;;;;8.74;100.00;98345.91;5049123;28;20186;-74
2023/03/09 03:53:10;;;;;;;1.20;0.70;;;;;;;8.72;100.00;98344.28;5042539;28;20750;-74
2023/03/09 03:55:36;;;;;;;2.87;1.00;;;;;;;8.73;100.00;98354.53;5047236;28;20254;-73
2023/03/09 03:58:01;;;;;;;3.30;1.03;;;;;;;8.72;100.00;98357.19;5044249;28;20756;-73
2023/03/09 04:00:26;;;;;;;2.30;0.90;;;;;;;8.67;100.00;98363.31;5043014;28;20289;-73
2023/03/09 04:02:52;;;;;;;1.37;0.90;;;;;;;8.67;100.00;98367.66;5039427;28;20194;-73
2023/03/09 04:05:18;;;;;;;2.20;0.97;;;;;;;8.64;100.00;98373.72;5044552;28;20215;-73
2023/03/09 04:07:44;;;;;;;2.43;0.87;;;;;;;8.61;100.00;98373.00;5045100;28;20334;-73
2023/03/09 04:10:10;;;;;;;2.20;0.90;;;;;;;8.60;100.00;98379.03;5046266;28;20605;-73
2023/03/09 04:12:35;;;;;;;2.80;1.13;;;;;;;8.63;100.00;98389.25;5045941;28;20232;-73
2023/03/09 04:15:00;;;;;;;2.47;0.90;;;;;;;8.61;100.00;98394.47;5046273;28;20214;-73
2023/03/09 04:17:26;;;;;;;3.33;1.10;;;;;;;8.66;100.00;98389.16;5047962;28;20186;-72
2023/03/09 04:19:51;;;;;;;3.43;1.33;;;;;;;8.64;100.00;98399.50;5045957;28;20217;-73
2023/03/09 04:22:16;;;;;;;3.60;1.10;;;;;;;8.65;100.00;98413.25;5043676;28;20197;-73
2023/03/09 04:24:42;;;;;;;2.53;1.20;;;;;;;8.64;100.00;98421.91;5044484;28;20186;-75
2023/03/09 04:27:07;;;;;;;2.60;1.17;;;;;;;8.65;100.00;98424.41;5043050;28;20191;-73
2023/03/09 04:29:32;;;;;;;5.57;1.30;;;;;;;8.69;100.00;98431.16;5042182;28;20214;-72
2023/03/09 04:31:58;;;;;;;7.30;1.47;;;;;;;8.71;100.00;98433.69;5041010;28;20210;-72
2023/03/09 04:34:23;;;;;;;1.90;0.90;;;;;;;8.68;100.00;98434.63;5043334;28;20290;-73
2023/03/09 04:36:48;;;;;;;2.40;1.13;;;;;;;8.72;100.00;98447.44;5047595;28;20217;-74
2023/03/09 04:39:15;;;;;;;3.30;1.57;;;;;;;8.72;100.00;98448.28;5039647;28;20586;-73
2023/03/09 04:41:40;;;;;;;2.73;1.40;;;;;;;8.71;100.00;98440.59;5044286;28;20187;-73
2023/03/09 04:44:06;;;;;;;3.63;1.50;;;;;;;8.75;100.00;98447.34;5047419;28;20678;-72
2023/03/09 04:46:31;;;;;;;2.03;1.20;;;;;;;8.75;100.00;98453.34;5042638;28;20659;-73
2023/03/09 04:48:56;;;;;;;4.77;1.50;;;;;;;8.75;100.00;98450.75;5040444;28;20884;-72
2023/03/09 04:51:22;;;;;;;3.23;1.30;;;;;;;8.75;100.00;98452.50;5041304;28;20226;-73
2023/03/09 04:53:47;;;;;;;4.07;1.60;;;;;;;8.77;100.00;98456.72;5039546;28;20213;-73
2023/03/09 04:56:13;;;;;;;3.30;1.43;;;;;;;8.76;100.00;98456.78;5042131;28;20197;-72
2023/03/09 04:58:38;;;;;;;3.07;1.10;;;;;;;8.77;100.00;98459.31;5041551;28;20218;-71
2023/03/09 05:01:04;;;;;;;3.27;1.70;;;;;;;8.79;100.00;98467.84;5040515;28;20197;-71
2023/03/09 05:03:30;;;;;;;3.43;1.40;;;;;;;8.81;100.00;98468.63;5041316;28;20295;-70
2023/03/09 05:05:56;;;;;;;4.37;1.50;;;;;;;8.83;100.00;98477.19;5040681;28;20186;-71
2023/03/09 05:08:21;;;;;;;2.20;1.33;;;;;;;8.84;100.00;98478.88;5041551;28;20186;-72
2023/03/09 05:10:47;;;;;;;2.17;1.20;;;;;;;8.88;100.00;98476.16;5058880;28;20281;-71
2023/03/09 05:13:13;;;;;;;2.63;1.30;;;;;;;8.89;100.00;98481.31;5039540;28;20223;-72
2023/03/09 05:15:39;;;;;;;3.53;1.30;;;;;;;8.91;100.00;98484.69;5044306;28;20232;-75
2023/03/09 05:18:05;;;;;;;3.53;1.90;;;;;;;8.93;100.00;98474.31;5041317;28;20201;-73
2023/03/09 05:20:31;;;;;;;6.13;2.23;;;;;;;8.97;100.00;98481.06;5036670;28;20206;-73
2023/03/09 05:22:57;;;;;;;4.03;1.53;;;;;;;8.97;100.00;98479.31;5044319;28;20260;-73
2023/03/09 05:25:22;;;;;;;3.30;1.70;;;;;;;8.99;100.00;98474.13;5044942;28;20187;-73
2023/03/09 05:27:48;;;;;;;5.63;2.00;;;;;;;9.00;100.00;98497.28;5038936;28;20187;-73
2023/03/09 05:30:14;;;;;;;4.07;1.90;;;;;;;9.02;100.00;98491.22;5041771;28;20727;-73
2023/03/09 05:32:39;;;;;;;3.37;1.93;;;;;;;9.04;100.00;98492.84;5043850;28;20187;-73
2023/03/09 05:35:05;;;;;;;4.20;1.50;;;;;;;9.05;100.00;98491.97;5049206;28;20764;-73
2023/03/09 05:37:32;;;;;;;3.53;1.70;;;;;;;9.07;100.00;98497.94;5040323;28;20187;-73
2023/03/09 05:39:57;;;;;;;5.10;1.80;;;;;;;9.07;100.00;98491.94;5040887;28;20206;-73
2023/03/09 05:42:23;;;;;;;5.60;2.07;;;;;;;9.09;100.00;98493.56;5040515;28;20198;-73
2023/03/09 05:44:48;;;;;;;5.80;2.20;;;;;;;9.14;100.00;98498.56;5046174;28;20171;-73
2023/03/09 05:47:13;;;;;;;4.57;2.00;;;;;;;9.15;100.00;98501.09;5042863;28;20191;-73
2023/03/09 05:49:39;;;;;;;3.40;1.90;;;;;;;9.17;100.00;98502.78;5046988;28;20686;-73
2023/03/09 05:52:04;;;;;;;4.87;1.80;;;;;;;9.17;100.00;98489.88;5046210;28;20679;-73
2023/03/09 05:54:29;;;;;;;6.47;2.20;;;;;;;9.18;100.00;98500.19;5043699;28;20214;-72
2023/03/09 05:56:56;;;;;;;5.60;2.27;;;;;;;9.21;100.00;98506.97;5044738;28;20182;-71
2023/03/09 05:59:21;;;;;;;6.10;2.23;;;;;;;9.24;100.00;98504.28;5040859;28;20602;-71
2023/03/09 06:01:47;;;;;;;8.03;2.67;;;;;;;9.26;100.00;98494.75;5042991;28;20179;-72
2023/03/09 06:04:12;;;;;;;5.37;2.30;;;;;;;9.30;100.00;98504.94;5043859;28;20730;-72
2023/03/09 06:06:38;;;;;;;4.80;1.90;;;;;;;9.30;100.00;98504.09;5040472;28;20187;-73
2023/03/09 06:09:03;;;;;;;7.20;2.23;;;;;;;9.30;100.00;98509.28;5032413;28;20213;-74
2023/03/09 06:11:28;;;;;;;4.73;1.70;;;;;;;9.33;100.00;98509.16;5034867;28;20229;-73
2023/03/09 06:13:55;;;;;;;5.90;2.23;;;;;;;9.33;100.00;98503.16;5040897;28;20272;-73
2023/03/09 06:16:21;;;;;;;7.03;1.80;;;;;;;9.34;100.00;98518.59;5040030;28;20833;-74
2023/03/09 06:18:46;;;;;;;5.10;2.33;;;;;;;9.38;100.00;98517.59;5046558;28;20226;-74
2023/03/09 06:21:12;;;;;;;5.70;1.90;;;;;;;9.41;100.00;98519.22;5041839;28;20214;-73
2023/03/09 06:23:39;;;;;;;5.70;2.10;;;;;;;9.48;100.00;98517.28;5044288;28;20968;-74
2023/03/09 06:26:06;;;;;;;5.60;2.00;;;;;;;9.53;100.00;98533.47;5044426;28;20186;-73
2023/03/09 06:28:32;;;;;;;7.10;2.30;;;;;;;9.53;100.00;98536.88;5044861;28;20202;-73
2023/03/09 06:30:58;;;;;;;5.50;2.00;;;;;;;9.54;100.00;98538.59;5062407;28;20178;-74
2023/03/09 06:33:23;;;;;;;7.00;2.10;;;;;;;9.57;100.00;98532.50;5043543;28;20241;-73
2023/03/09 06:35:49;;;;;;;6.70;2.10;;;;;;;9.58;100.00;98529.00;5041262;28;20265;-73
2023/03/09 06:38:14;;;;;;;5.83;2.17;;;;;;;9.58;100.00;98531.59;5042857;28;20209;-73
2023/03/09 06:40:39;;;;;;;4.10;2.33;;;;;;;9.60;100.00;98530.66;5045102;28;20624;-73
2023/03/09 06:43:05;;;;;;;8.20;2.30;;;;;;;9.65;100.00;98537.41;5046933;28;20612;-74
2023/03/09 06:45:30;;;;;;;3.93;1.77;;;;;;;9.69;100.00;98541.53;5045154;28;20178;-73
2023/03/09 06:47:56;;;;;;;6.67;2.27;;;;;;;9.72;100.00;98531.97;5049557;28;20191;-72
2023/03/09 06:50:23;;;;;;;4.87;1.80;;;;;;;9.76;100.00;98543.88;5044075;28;20226;-74
2023/03/09 06:52:49;;;;;;;5.67;2.40;;;;;;;9.76;100.00;98543.88;5045460;28;20190;-74
2023/03/09 06:55:14;;;;;;;7.17;2.13;;;;;;;9.78;100.00;98546.44;5041360;28;20176;-73
2023/03/09 06:57:40;;;;;;;6.17;2.30;;;;;;;9.82;100.00;98553.19;5042835;28;20217;-74
2023/03/09 07:00:07;;;;;;;6.00;2.20;;;;;;;9.90;100.00;98560.69;5040057;28;20283;-73
2023/03/09 07:02:32;;;;;;;4.87;2.13;;;;;;;9.96;100.00;98572.53;5047052;28;20186;-74
2023/03/09 07:04:57;;;;;;;5.47;2.30;;;;;;;10.03;100.00;98566.25;5043866;28;20542;-74
2023/03/09 07:07:23;;;;;;;5.90;2.07;;;;;;;10.09;100.00;98570.34;5042924;28;20238;-73
2023/03/09 07:09:48;;;;;;;5.23;1.97;;;;;;;10.16;100.00;98577.03;5045663;28;20595;-74
2023/03/09 07:12:14;;;;;;;4.70;2.13;;;;;;;10.19;100.00;98582.09;5042300;28;20190;-74
2023/03/09 07:14:39;;;;;;;4.60;1.90;;;;;;;10.21;100.00;98593.19;5041978;28;20665;-73
2023/03/09 07:17:05;;;;;;;6.07;2.37;;;;;;;10.25;100.00;98588.78;5042014;28;20200;-74
2023/03/09 07:19:30;;;;;;;5.90;1.93;;;;;;;10.29;100.00;98588.63;5047105;28;20214;-73
2023/03/09 07:21:55;;;;;;;6.33;2.30;;;;;;;10.33;100.00;98597.09;5050021;28;20643;-73
2023/03/09 07:24:21;;;;;;;5.73;2.40;;;;;;;10.35;100.00;98598.75;5044391;28;20281;-73
2023/03/09 07:26:48;;;;;;;4.47;2.33;;;;;;;10.37;100.00;98612.44;5041696;28;20182;-73
2023/03/09 07:29:14;;;;;;;5.50;2.60;;;;;;;10.39;100.00;98615.03;5048168;28;20211;-73
2023/03/09 07:31:40;;;;;;;7.30;2.47;;;;;;;10.41;100.00;98618.41;5047970;28;20203;-74
2023/03/09 07:34:05;;;;;;;5.10;2.20;;;;;;;10.41;100.00;98628.75;5046382;28;20279;-73
2023/03/09 07:36:31;;;;;;;7.37;2.10;;;;;;;10.43;100.00;98633.84;5045117;28;20640;-73
2023/03/09 07:38:56;;;;;;;6.73;2.23;;;;;;;10.42;100.00;98634.75;5040780;28;20692;-73
2023/03/09 07:41:22;;;;;;;7.47;4.50;;;;;;;10.43;100.00;98639.91;5045796;28;20193;-73
2023/03/09 07:43:47;;;;;;;8.80;5.73;;;;;;;10.42;100.00;98643.38;5043460;28;20189;-73
2023/03/09 07:46:15;;;;;;;10.60;7.87;;;;;;;10.44;100.00;98653.66;5045425;28;20226;-73
2023/03/09 07:48:41;;;;;;;18.03;13.60;;;;;;;10.46;100.00;98665.63;5041791;28;20217;-73
2023/03/09 07:51:07;;;;;;;8.73;4.90;;;;;;;10.51;100.00;98665.50;5039847;28;20558;-74
2023/03/09 07:53:34;;;;;;;9.73;7.77;;;;;;;10.55;100.00;98676.56;5044768;28;20231;-73
2023/03/09 07:56:03;;;;;;;18.30;13.83;;;;;;;10.55;100.00;98676.56;5044342;28;20762;-74
2023/03/09 07:58:30;;;;;;;12.57;11.00;;;;;;;10.58;100.00;98681.63;5056699;28;20238;-74
2023/03/09 08:00:56;;;;;;;11.83;9.60;;;;;;;10.52;100.00;98680.94;5048132;28;20568;-73
2023/03/09 08:03:22;;;;;;;13.63;11.53;;;;;;;10.49;100.00;98683.63;5041644;28;20196;-74
2023/03/09 08:05:49;;;;;;;10.40;8.73;;;;;;;10.46;100.00;98677.72;5039832;28;20198;-74
2023/03/09 08:08:15;;;;;;;12.30;11.07;;;;;;;10.42;100.00;98689.06;5038515;28;20238;-74
2023/03/09 08:10:47;;;;;;;7.97;6.90;;;;;;;10.41;100.00;98697.72;5037474;28;20189;-74
2023/03/09 08:13:13;;;;;;;9.10;5.30;;;;;;;10.41;100.00;98700.31;5044155;28;20292;-73
2023/03/09 08:15:39;;;;;;;5.30;4.47;;;;;;;10.42;100.00;98704.59;5044239;28;20329;-74
2023/03/09 08:18:04;;;;;;;6.37;4.40;;;;;;;10.41;100.00;98716.69;5038165;28;20186;-74
2023/03/09 08:20:30;;;;;;;5.70;4.40;;;;;;;10.43;100.00;98722.66;5048304;28;20220;-74
2023/03/09 08:22:56;;;;;;;6.60;5.73;;;;;;;10.46;100.00;98722.53;5061278;28;20194;-74
2023/03/09 08:25:22;;;;;;;6.53;4.93;;;;;;;10.49;100.00;98726.78;5089339;28;20181;-72
2023/03/09 08:27:48;;;;;;;6.10;4.43;;;;;;;10.47;100.00;98737.16;5048802;28;20236;-74
2023/03/09 08:30:14;;;;;;;4.53;2.90;;;;;;;10.48;100.00;98735.44;5050274;28;20212;-73
2023/03/09 08:32:40;;;;;;;4.43;2.93;;;;;;;10.49;100.00;98737.13;5048570;28;20608;-73
2023/03/09 08:35:06;;;;;;;3.60;2.90;;;;;;;10.50;100.00;98747.41;5047383;28;20269;-74
2023/03/09 08:37:31;;;;;;;7.40;3.47;;;;;;;10.51;100.00;98743.91;5048226;28;20663;-73
2023/03/09 08:39:57;;;;;;;3.20;1.97;;;;;;;10.54;100.00;98744.72;5044720;28;20225;-73
2023/03/09 08:42:22;;;;;;;4.23;2.37;;;;;;;10.61;100.00;98751.34;5041601;28;20195;-74
2023/03/09 08:44:47;;;;;;;3.63;1.73;;;;;;;10.67;100.00;98746.81;5042849;28;20216;-74
2023/03/09 08:47:13;;;;;;;6.17;1.70;;;;;;;10.74;100.00;98744.84;5044848;28;20189;-74
2023/03/09 08:49:40;;;;;;;3.37;1.60;;;;;;;10.81;100.00;98746.34;5045693;28;20213;-74
2023/03/09 08:52:06;;;;;;;5.63;2.07;;;;;;;10.94;100.00;98751.09;5041833;28;20211;-74
2023/03/09 08:54:32;;;;;;;3.90;1.60;;;;;;;11.06;100.00;98762.75;5043030;28;20344;-73
2023/03/09 08:56:57;;;;;;;5.03;2.37;;;;;;;11.16;100.00;98766.72;5045202;28;20702;-74
2023/03/09 08:59:23;;;;;;;4.27;2.10;;;;;;;11.20;100.00;98759.66;5048558;28;20212;-73
2023/03/09 09:01:48;;;;;;;4.43;2.00;;;;;;;11.22;100.00;98761.31;5038757;28;20193;-73
2023/03/09 09:04:13;;;;;;;4.97;2.20;;;;;;;11.19;100.00;98774.38;5045561;28;20290;-74
2023/03/09 09:06:38;;;;;;;3.77;1.87;;;;;;;11.22;100.00;98773.41;5043796;28;20731;-73
2023/03/09 09:09:04;;;;;;;3.27;1.63;;;;;;;11.23;100.00;98786.31;5047174;28;20216;-73
2023/03/09 09:11:32;;;;;;;2.83;1.10;;;;;;;11.23;100.00;98788.91;5040979;28;20665;-73
2023/03/09 09:13:57;;;;;;;3.70;1.27;;;;;;;11.25;100.00;98784.53;5047070;28;20744;-74
2023/03/09 09:16:22;;;;;;;3.83;1.57;;;;;;;11.23;100.00;98788.91;5061050;28;20274;-74
2023/03/09 09:18:48;;;;;;;3.77;1.47;;;;;;;11.26;100.00;98800.91;5040351;28;20630;-74
2023/03/09 09:21:16;;;;;;;3.57;1.30;;;;;;;11.25;100.00;98801.78;5042931;28;20189;-73
2023/03/09 09:23:43;;;;;;;3.07;1.73;;;;;;;11.24;100.00;98813.03;5045008;28;20179;-73
2023/03/09 09:26:11;;;;;;;3.07;1.63;;;;;;;11.25;100.00;98814.75;5046592;28;20195;-73
2023/03/09 09:28:36;;;;;;;2.13;1.30;;;;;;;11.26;100.00;98819.88;5043175;28;20206;-74
2023/03/09 09:31:03;;;;;;;3.90;1.63;;;;;;;11.33;100.00;98828.28;5043525;28;20209;-74
2023/03/09 09:33:31;;;;;;;2.97;1.50;;;;;;;11.39;100.00;98829.81;5042671;28;20640;-74
2023/03/09 09:35:59;;;;;;;4.03;1.50;;;;;;;11.39;100.00;98838.41;5044216;28;20188;-74
2023/03/09 09:38:26;;;;;;;4.47;1.43;;;;;;;11.41;100.00;98838.38;5042123;28;20226;-74
2023/03/09 09:40:54;;;;;;;4.40;1.73;;;;;;;11.36;100.00;98841.09;5043899;28;20177;-74
2023/03/09 09:43:21;;;;;;;5.13;1.77;;;;;;;11.33;100.00;98851.59;5041869;28;20241;-74
2023/03/09 09:45:49;;;;;;;4.47;1.80;;;;;;;11.32;100.00;98857.66;5057984;28;20203;-73
2023/03/09 09:48:17;;;;;;;3.37;1.40;;;;;;;11.29;100.00;98852.59;5041670;28;20189;-74
2023/03/09 09:51:03;;;;;;;3.43;1.83;;;;;;;11.21;100.00;98845.09;5045949;28;20180;-73
2023/03/09 09:53:55;;;;;;;4.07;1.70;;;;;;;11.11;100.00;98846.31;5042250;28;20217;-73
2023/03/09 09:56:26;;;;;;;4.03;1.50;;;;;;;11.05;100.00;98851.69;5043263;28;20181;-74
2023/03/09 09:59:03;;;;;;;3.63;2.00;;;;;;;11.05;100.00;98852.50;5041140;28;20699;-74
2023/03/09 10:01:47;;;;;;;2.33;1.47;;;;;;;11.05;100.00;98864.63;5045931;28;20261;-73
2023/03/09 10:04:24;;;;;;;3.47;1.43;;;;;;;11.04;100.00;98861.19;5042751;28;20192;-73
2023/03/09 10:06:52;;;;;;;4.23;1.87;;;;;;;11.07;100.00;98868.84;5041120;28;20199;-74
2023/03/09 10:09:28;;;;;;;3.53;1.90;;;;;;;11.16;100.00;98861.69;5045411;28;20216;-74
2023/03/09 10:11:58;;;;;;;4.40;1.90;;;;;;;11.26;100.00;98863.91;5037955;28;20188;-74
2023/03/09 10:14:27;;;;;;;3.77;1.60;;;;;;;11.44;100.00;98862.41;5043001;28;20626;-73
2023/03/09 10:17:10;;;;;;;4.13;1.70;;;;;;;11.69;100.00;98858.91;5040030;28;20212;-73
2023/03/09 10:19:38;;;;;;;4.93;1.53;;;;;;;11.84;100.00;98860.13;5043947;28;20215;-74
2023/03/09 10:22:14;;;;;;;4.83;1.77;;;;;;;11.98;100.00;98862.22;5038499;28;20188;-73
2023/03/09 10:24:45;;;;;;;3.57;1.80;;;;;;;12.16;100.00;98858.09;5041166;28;20181;-74
2023/03/09 10:27:26;;;;;;;3.60;1.60;;;;;;;12.45;100.00;98868.22;5041863;28;20180;-74
2023/03/09 10:30:06;;;;;;;5.40;1.90;;;;;;;12.72;100.00;98873.19;5042944;28;20280;-73
2023/03/09 10:32:40;;;;;;;4.37;2.07;;;;;;;12.91;100.00;98870.72;5040405;28;20203;-73
2023/03/09 10:35:26;;;;;;;4.67;1.90;;;;;;;12.96;100.00;98874.81;5037810;28;20246;-73
2023/03/09 10:37:52;;;;;;;2.97;1.97;;;;;;;12.95;100.00;98872.25;5042266;28;20205;-73
2023/03/09 10:40:26;;;;;;;3.33;1.70;;;;;;;12.94;100.00;98879.22;5039320;28;20217;-73
2023/03/09 10:42:52;;;;;;;3.70;1.77;;;;;;;12.92;100.00;98881.03;5040398;28;20192;-73
2023/03/09 10:45:32;;;;;;;5.07;1.90;;;;;;;12.93;100.00;98885.31;5040208;28;20832;-73
2023/03/09 10:48:07;;;;;;;6.60;1.90;;;;;;;12.97;100.00;98891.22;5041440;28;20201;-74
2023/03/09 10:50:36;;;;;;;5.00;2.00;;;;;;;13.07;100.00;98882.16;5041962;28;20202;-73
2023/03/09 10:53:27;;;;;;;5.57;2.17;;;;;;;13.12;100.00;98887.16;5039939;28;20191;-73
2023/03/09 10:55:57;;;;;;;4.20;1.80;;;;;;;13.24;100.00;98885.78;5035320;28;20652;-74
2023/03/09 10:58:22;;;;;;;4.73;1.93;;;;;;;13.19;100.00;98882.53;5043184;28;20285;-74
2023/03/09 11:00:58;;;;;;;4.23;1.73;;;;;;;13.22;100.00;98879.81;5043136;28;20194;-73
2023/03/09 11:03:30;;;;;;;2.93;1.57;;;;;;;13.08;100.00;98870.84;5044865;28;20188;-74
2023/03/09 11:06:14;;;;;;;4.67;2.17;;;;;;;13.00;100.00;98875.53;5048407;28;20184;-73
2023/03/09 11:08:42;;;;;;;5.23;2.00;;;;;;;13.01;100.00;98881.56;5043850;28;20855;-74
2023/03/09 11:11:18;;;;;;;6.67;2.20;;;;;;;13.04;100.00;98884.88;5048528;28;20197;-74
2023/03/09 11:13:47;;;;;;;7.97;2.10;;;;;;;13.10;100.00;98889.78;5044700;28;20205;-73
2023/03/09 11:16:20;;;;;;;6.00;2.23;;;;;;;13.34;100.00;98894.88;5044283;28;20814;-74
2023/03/09 11:18:46;;;;;;;6.80;2.17;;;;;;;13.44;100.00;98897.09;5043975;28;20213;-73
2023/03/09 11:21:21;;;;;;;5.50;1.80;;;;;;;13.45;100.00;98891.00;5042528;28;20331;-73
2023/03/09 11:23:50;;;;;;;4.27;1.70;;;;;;;13.49;100.00;98889.97;5045073;28;20639;-74
2023/03/09 11:26:21;;;;;;;5.17;2.20;;;;;;;13.59;100.00;98893.00;5049894;28;20262;-73
2023/03/09 11:29:01;;;;;;;5.67;2.20;;;;;;;13.70;99.83;98902.00;5046320;28;20696;-74